createdAt,value
2023-01-26T00:00:36.256Z,101350
2023-01-26T00:12:54.569Z,101331
2023-01-26T00:19:05.633Z,101323
2023-01-26T00:25:16.520Z,101312
2023-01-26T00:31:35.025Z,101306
2023-01-26T00:37:25.222Z,101304
2023-01-26T00:43:20.796Z,101313
2023-01-26T00:49:27.733Z,101310
2023-01-26T00:55:31.070Z,101296
2023-01-26T01:07:56.013Z,101290
2023-01-26T01:20:48.027Z,101280
2023-01-26T01:27:06.926Z,101285
2023-01-26T01:33:45.753Z,101279
2023-01-26T01:39:58.965Z,101283
2023-01-26T01:46:18.235Z,101268
2023-01-26T01:59:22.180Z,101249
2023-01-26T02:12:11.160Z,101240
2023-01-26T02:18:21.760Z,101226
2023-01-26T04:52:29.516Z,101148
2023-01-26T05:35:37.695Z,101145
2023-01-26T05:41:27.888Z,101148
2023-01-26T05:47:18.417Z,101155
2023-01-26T05:53:08.173Z,101155
2023-01-26T05:59:01.694Z,101162
2023-01-26T06:04:52.270Z,101168
2023-01-26T06:10:42.697Z,101164
2023-01-26T06:16:33.881Z,101162
2023-01-26T06:22:25.811Z,101177
2023-01-26T06:28:16.401Z,101174
2023-01-26T06:34:07.363Z,101173
2023-01-26T06:39:57.604Z,101174
2023-01-26T06:45:47.965Z,101179
2023-01-26T06:51:41.173Z,101180
2023-01-26T06:57:34.290Z,101181
2023-01-26T07:03:25.471Z,101187
2023-01-26T07:09:16.116Z,101193
2023-01-26T07:22:04.182Z,101205
2023-01-26T07:27:52.250Z,101213
2023-01-26T07:33:44.053Z,101215
2023-01-26T07:39:37.757Z,101217
2023-01-26T07:45:28.113Z,101208
2023-01-26T07:51:20.849Z,101215
2023-01-26T07:57:12.656Z,101218
2023-01-26T08:03:03.495Z,101212
2023-01-26T08:08:54.365Z,101210
2023-01-26T08:14:50.514Z,101203
2023-01-26T08:20:43.081Z,101200
2023-01-26T08:26:35.256Z,101201
2023-01-26T08:32:27.640Z,101202
2023-01-26T08:48:42.663Z,101212
2023-01-26T08:54:30.625Z,101221
2023-01-26T09:00:21.394Z,101229
2023-01-26T09:07:21.079Z,101238
2023-01-26T09:13:11.176Z,101229
2023-01-26T09:19:01.455Z,101219
2023-01-26T09:24:52.581Z,101222
2023-01-26T09:30:41.607Z,101232
2023-01-26T09:36:31.007Z,101239
2023-01-26T09:42:25.617Z,101245
2023-01-26T09:48:18.980Z,101250
2023-01-26T09:54:13.810Z,101243
2023-01-26T10:00:04.822Z,101254
2023-01-26T10:05:57.497Z,101255
2023-01-26T10:11:49.059Z,101251
2023-01-26T10:17:40.398Z,101248
2023-01-26T10:24:42.006Z,101234
2023-01-26T10:30:31.065Z,101231
2023-01-26T10:36:22.465Z,101221
2023-01-26T10:42:11.616Z,101219
2023-01-26T10:48:07.284Z,101212
2023-01-26T10:53:58.431Z,101205
2023-01-26T10:59:49.101Z,101202
2023-01-26T11:05:39.588Z,101208
2023-01-26T11:11:31.684Z,101195
2023-01-26T11:17:22.450Z,101188
2023-01-26T11:23:12.623Z,101175
2023-01-26T11:29:04.180Z,101170
2023-01-26T11:34:55.253Z,101165
2023-01-26T11:40:45.109Z,101156
2023-01-26T11:46:37.489Z,101148
2023-01-26T11:52:27.503Z,101149
2023-01-26T11:58:18.346Z,101142
2023-01-26T12:04:09.301Z,101138
2023-01-26T12:10:01.015Z,101134
2023-01-26T12:17:20.596Z,101123
2023-01-26T12:23:11.428Z,101116
2023-01-26T12:29:01.970Z,101112
2023-01-26T12:34:56.325Z,101101
2023-01-26T12:40:46.302Z,101104
2023-01-26T12:46:35.889Z,101101
2023-01-26T12:52:25.987Z,101092
2023-01-26T12:58:16.590Z,101091
2023-01-26T13:04:06.649Z,101085
2023-01-26T13:09:55.394Z,101089
2023-01-26T13:15:47.131Z,101084
2023-01-26T13:21:39.573Z,101081
2023-01-26T13:27:30.114Z,101076
2023-01-26T13:33:21.235Z,101079
2023-01-26T13:39:10.352Z,101081
2023-01-26T13:45:01.119Z,101080
2023-01-26T13:50:53.958Z,101087
2023-01-26T13:56:44.818Z,101087
2023-01-26T14:02:35.877Z,101085
2023-01-26T14:08:25.700Z,101090
2023-01-26T14:14:16.295Z,101091
2023-01-26T14:20:09.711Z,101090
2023-01-26T14:25:59.012Z,101093
2023-01-26T14:31:49.609Z,101090
2023-01-26T14:37:40.409Z,101094
2023-01-26T14:43:29.093Z,101094
2023-01-26T14:49:18.520Z,101089
2023-01-26T14:55:11.047Z,101094
2023-01-26T15:01:00.732Z,101090
2023-01-26T15:06:53.947Z,101097
2023-01-26T15:12:47.791Z,101100
2023-01-26T15:18:39.065Z,101100
2023-01-26T15:24:30.950Z,101100
2023-01-26T15:30:21.237Z,101104
2023-01-26T15:36:10.281Z,101104
2023-01-26T15:42:02.099Z,101102
2023-01-26T15:47:51.582Z,101104
2023-01-26T15:53:40.896Z,101104
2023-01-26T15:59:31.737Z,101102
2023-01-26T16:05:22.382Z,101103
2023-01-26T16:11:14.107Z,101100
2023-01-26T16:17:03.273Z,101106
2023-01-26T16:22:54.161Z,101100
2023-01-26T16:28:44.245Z,101111
2023-01-26T16:34:34.620Z,101109
2023-01-26T16:40:25.122Z,101106
2023-01-26T16:47:23.804Z,101105
2023-01-26T16:53:13.252Z,101107
2023-01-26T16:59:06.072Z,101108
2023-01-26T17:04:58.851Z,101110
2023-01-26T17:11:04.880Z,101114
2023-01-26T17:18:03.120Z,101112
2023-01-26T17:23:55.847Z,101116
2023-01-26T17:29:48.645Z,101120
2023-01-26T17:35:38.857Z,101126
2023-01-26T17:41:29.411Z,101125
2023-01-26T17:47:20.287Z,101130
2023-01-26T17:53:10.078Z,101130
2023-01-26T17:59:02.083Z,101136
2023-01-26T18:04:51.137Z,101134
2023-01-26T18:10:44.068Z,101135
2023-01-26T18:16:34.494Z,101133
2023-01-26T18:22:25.323Z,101130
2023-01-26T18:28:18.344Z,101129
2023-01-26T18:34:10.107Z,101129
2023-01-26T18:40:02.095Z,101128
2023-01-26T18:45:52.723Z,101128
2023-01-26T18:51:46.958Z,101126
2023-01-26T18:57:37.750Z,101124
2023-01-26T19:03:28.781Z,101125
2023-01-26T19:09:21.462Z,101120
2023-01-26T19:15:11.873Z,101116
2023-01-26T19:21:04.252Z,101123
2023-01-26T19:37:22.755Z,101109
2023-01-26T19:43:17.137Z,101108
2023-01-26T19:49:09.630Z,101101
2023-01-26T19:55:00.388Z,101107
2023-01-26T20:00:50.736Z,101106
2023-01-26T20:06:41.986Z,101098
2023-01-26T20:12:33.484Z,101100
2023-01-26T20:18:26.318Z,101100
2023-01-26T20:24:18.224Z,101097
2023-01-26T20:30:08.931Z,101096
2023-01-26T20:35:58.602Z,101085
2023-01-26T20:42:57.491Z,101083
2023-01-26T20:48:47.830Z,101083
2023-01-26T20:54:37.306Z,101081
2023-01-26T21:00:26.480Z,101086
2023-01-26T21:06:18.216Z,101082
2023-01-26T21:12:09.473Z,101076
2023-01-26T21:17:59.610Z,101074
2023-01-26T21:23:49.618Z,101072
2023-01-26T21:29:37.808Z,101065
2023-01-26T21:35:28.477Z,101061
2023-01-26T21:41:18.766Z,101064
2023-01-26T21:47:09.082Z,101055
2023-01-26T21:52:59.689Z,101056
2023-01-26T21:58:53.077Z,101047
2023-01-26T22:04:47.021Z,101047
2023-01-26T22:14:09.412Z,101033
2023-01-26T22:21:04.316Z,101031
2023-01-26T22:26:55.145Z,101032
2023-01-26T22:32:48.286Z,101027
2023-01-26T22:38:38.355Z,101026
2023-01-26T22:44:32.319Z,101029
2023-01-26T22:50:27.936Z,101030
2023-01-26T22:56:22.215Z,101023
2023-01-26T23:02:12.273Z,101024
2023-01-26T23:08:02.680Z,101031
2023-01-26T23:13:55.214Z,101021
2023-01-26T23:19:47.998Z,101014
2023-01-26T23:25:39.576Z,101015
2023-01-26T23:31:30.941Z,101013
2023-01-26T23:37:21.932Z,101013
2023-01-26T23:43:19.978Z,101009
2023-01-26T23:49:11.418Z,101010
2023-01-26T23:55:11.524Z,101008
